Time;durP1;ratioP1;P1;durP2;ratioP2;P2;SDS_P1;SDS_P2;PMS_P1;PMS_P2;Temp;Humidity;BMP_temperature;BMP_pressure;BME280_temperature;BME280_humidity;BME280_pressure;Samples;Min_cycle;Max_cycle;Signal;HPM_P1;HPM_P2
2023/03/13 00:02:11;;;;;;;19.65;4.20;;;8.40;99.90;;;;;;5063438;28;20039;-65
2023/03/13 00:04:36;;;;;;;15.85;3.22;;;8.40;99.90;;;;;;5078740;28;20029;-66
2023/03/13 00:07:02;;;;;;;19.58;3.28;;;8.40;99.90;;;;;;5064773;28;20052;-67
2023/03/13 00:09:27;;;;;;;16.17;2.53;;;8.50;99.90;;;;;;5066437;28;20480;-67
2023/03/13 00:11:53;;;;;;;13.18;2.67;;;8.50;99.90;;;;;;5070594;28;20032;-66
2023/03/13 00:14:19;;;;;;;12.88;3.17;;;8.50;99.90;;;;;;5067798;28;20107;-68
2023/03/13 00:16:44;;;;;;;14.10;2.72;;;8.60;99.90;;;;;;5069593;28;20409;-67
2023/03/13 00:19:10;;;;;;;12.77;3.35;;;8.60;99.90;;;;;;5067104;28;20454;-66
2023/03/13 00:21:36;;;;;;;13.02;3.95;;;8.60;99.90;;;;;;5065187;28;20032;-67
2023/03/13 00:24:03;;;;;;;19.65;3.03;;;8.60;99.90;;;;;;5063748;28;20048;-67
2023/03/13 00:26:29;;;;;;;19.17;3.08;;;8.70;99.90;;;;;;5068070;28;20451;-66
2023/03/13 00:28:55;;;;;;;15.60;2.78;;;8.60;99.90;;;;;;5053568;28;20382;-67
2023/03/13 00:31:23;;;;;;;12.55;2.63;;;8.70;99.90;;;;;;5067809;28;20035;-67
2023/03/13 00:33:52;;;;;;;21.40;3.00;;;8.70;99.90;;;;;;5063878;28;20017;-67
2023/03/13 00:36:23;;;;;;;16.80;4.30;;;8.70;99.90;;;;;;5064910;28;20566;-65
2023/03/13 00:38:50;;;;;;;16.70;3.15;;;8.80;99.90;;;;;;5068708;28;20505;-66
2023/03/13 00:41:28;;;;;;;17.40;3.08;;;8.80;99.90;;;;;;5067399;28;20036;-65
2023/03/13 00:43:54;;;;;;;25.30;3.80;;;8.80;99.90;;;;;;5066307;28;20031;-66
2023/03/13 00:46:21;;;;;;;16.65;3.47;;;8.90;99.90;;;;;;5063791;28;20085;-68
2023/03/13 00:48:48;;;;;;;25.10;3.90;;;8.90;99.90;;;;;;5062530;28;20088;-66
2023/03/13 00:51:15;;;;;;;17.80;2.55;;;8.90;99.90;;;;;;5066755;28;20091;-66
2023/03/13 00:53:41;;;;;;;17.40;3.35;;;8.90;99.90;;;;;;5067887;28;20577;-67
2023/03/13 00:56:10;;;;;;;10.10;2.45;;;9.00;99.90;;;;;;5062222;28;20067;-66
2023/03/13 00:58:38;;;;;;;12.13;3.05;;;9.00;99.90;;;;;;5067789;28;20027;-67
2023/03/13 01:01:11;;;;;;;18.67;3.00;;;9.10;99.90;;;;;;5065235;28;20028;-67
2023/03/13 01:03:38;;;;;;;12.20;3.65;;;9.10;99.90;;;;;;5071228;28;20024;-67
2023/03/13 01:06:06;;;;;;;15.45;2.63;;;9.10;99.90;;;;;;5067994;28;20036;-67
2023/03/13 01:08:32;;;;;;;21.88;3.00;;;9.10;99.90;;;;;;5070181;28;20025;-67
2023/03/13 01:11:11;;;;;;;11.98;2.72;;;9.20;99.90;;;;;;5070015;28;20046;-66
2023/03/13 01:13:38;;;;;;;14.85;3.30;;;9.20;99.90;;;;;;5065515;28;20420;-66
2023/03/13 01:16:09;;;;;;;13.73;2.97;;;9.20;99.90;;;;;;5062624;28;20058;-66
2023/03/13 01:18:36;;;;;;;21.52;3.60;;;9.20;99.90;;;;;;5070262;28;20443;-68
2023/03/13 01:21:02;;;;;;;19.75;2.95;;;9.20;99.90;;;;;;5067298;28;20086;-65
2023/03/13 01:23:28;;;;;;;17.70;2.90;;;9.20;99.90;;;;;;5067791;28;20037;-66
2023/03/13 01:25:55;;;;;;;18.77;2.80;;;9.20;99.90;;;;;;5064910;28;20039;-66
2023/03/13 01:28:21;;;;;;;14.70;3.45;;;9.20;99.90;;;;;;5064744;28;20041;-66
2023/03/13 01:30:47;;;;;;;21.92;3.55;;;9.20;99.90;;;;;;5040698;28;20531;-67
2023/03/13 01:33:13;;;;;;;18.85;2.78;;;9.10;99.90;;;;;;5072103;28;20017;-66
2023/03/13 01:35:38;;;;;;;16.77;3.15;;;9.10;99.90;;;;;;5065819;28;20033;-66
2023/03/13 01:38:04;;;;;;;18.35;4.80;;;9.10;99.90;;;;;;5049366;28;20498;-66
2023/03/13 01:40:30;;;;;;;17.20;2.25;;;9.10;99.90;;;;;;5068957;28;20043;-67
2023/03/13 01:42:58;;;;;;;22.70;2.65;;;9.00;99.90;;;;;;5067377;28;20086;-67
2023/03/13 01:45:48;;;;;;;21.23;4.50;;;9.00;99.90;;;;;;5071655;28;20027;-66
2023/03/13 01:48:14;;;;;;;12.95;2.55;;;9.00;99.90;;;;;;5068236;28;20111;-66
2023/03/13 01:50:39;;;;;;;15.13;3.10;;;9.00;99.90;;;;;;5069969;28;20485;-66
2023/03/13 01:53:05;;;;;;;17.55;3.22;;;9.00;99.90;;;;;;5069746;28;20033;-66
2023/03/13 01:55:32;;;;;;;17.77;3.17;;;9.10;99.90;;;;;;5072111;28;20032;-67
2023/03/13 01:57:58;;;;;;;22.77;5.22;;;9.10;99.90;;;;;;5068768;28;20493;-66
2023/03/13 02:00:28;;;;;;;17.48;2.60;;;9.00;99.90;;;;;;5070725;28;20032;-67
2023/03/13 02:02:57;;;;;;;16.70;3.42;;;9.10;99.90;;;;;;5069698;28;20042;-66
2023/03/13 02:05:26;;;;;;;15.80;3.72;;;9.00;99.90;;;;;;5070126;28;20021;-66
2023/03/13 02:08:06;;;;;;;22.02;3.78;;;9.10;99.90;;;;;;5071900;28;20860;-66
2023/03/13 02:10:36;;;;;;;20.83;3.08;;;9.00;99.90;;;;;;5067402;28;20104;-67
2023/03/13 02:13:01;;;;;;;11.13;3.45;;;9.00;99.90;;;;;;5067260;28;20061;-66
2023/03/13 02:15:29;;;;;;;18.75;3.25;;;9.10;99.90;;;;;;5070818;28;20497;-67
2023/03/13 02:17:55;;;;;;;15.13;2.90;;;9.10;99.90;;;;;;5070598;28;20027;-67
2023/03/13 02:20:21;;;;;;;13.82;2.67;;;9.10;99.90;;;;;;5079448;28;20021;-66
2023/03/13 02:22:53;;;;;;;13.32;2.25;;;9.10;99.90;;;;;;5070490;28;20436;-68
2023/03/13 02:25:30;;;;;;;15.88;2.17;;;9.10;99.90;;;;;;5085940;28;20110;-66
2023/03/13 02:28:00;;;;;;;12.82;2.78;;;9.10;99.90;;;;;;5065426;28;20048;-66
2023/03/13 02:30:27;;;;;;;13.50;2.38;;;9.10;99.90;;;;;;5051735;28;20536;-67
2023/03/13 02:32:53;;;;;;;10.75;2.30;;;9.10;99.90;;;;;;5070024;28;20031;-67
2023/03/13 02:35:21;;;;;;;15.40;2.90;;;9.10;99.90;;;;;;5067205;28;20234;-67
2023/03/13 02:37:50;;;;;;;18.05;2.45;;;9.10;99.90;;;;;;5062975;28;20024;-66
2023/03/13 02:40:21;;;;;;;14.15;2.80;;;9.10;99.90;;;;;;5060827;28;20410;-67
2023/03/13 02:42:48;;;;;;;13.15;2.85;;;9.10;99.90;;;;;;5064950;28;20028;-67
2023/03/13 02:45:14;;;;;;;11.98;2.50;;;9.10;99.90;;;;;;5064288;28;20142;-65
2023/03/13 02:47:40;;;;;;;10.20;2.03;;;9.10;99.90;;;;;;5065702;28;20116;-66
2023/03/13 02:50:06;;;;;;;5.00;1.63;;;9.20;99.90;;;;;;5069266;28;20110;-65
2023/03/13 02:52:58;;;;;;;14.98;2.28;;;9.20;99.90;;;;;;5072179;28;20043;-66
2023/03/13 02:55:39;;;;;;;13.73;2.33;;;9.20;99.90;;;;;;5065573;28;20021;-65
2023/03/13 02:58:05;;;;;;;11.25;2.22;;;9.20;99.90;;;;;;5079590;28;20381;-67
2023/03/13 03:00:31;;;;;;;16.95;2.78;;;9.20;99.90;;;;;;5067968;28;20024;-66
2023/03/13 03:02:57;;;;;;;12.77;1.63;;;9.20;99.90;;;;;;5068304;28;20078;-65
2023/03/13 03:05:23;;;;;;;10.38;2.00;;;9.20;99.90;;;;;;5068422;28;20032;-66
2023/03/13 03:07:49;;;;;;;10.60;2.55;;;9.20;99.90;;;;;;5069468;28;20020;-66
2023/03/13 03:10:16;;;;;;;9.23;1.42;;;9.20;99.90;;;;;;5065697;28;20493;-65
2023/03/13 03:12:42;;;;;;;11.85;1.45;;;9.20;99.90;;;;;;5066913;28;20108;-65
2023/03/13 03:15:08;;;;;;;8.95;1.90;;;9.20;99.90;;;;;;5067044;28;20116;-64
2023/03/13 03:17:34;;;;;;;10.38;2.05;;;9.20;99.90;;;;;;5071083;28;20037;-65
2023/03/13 03:19:59;;;;;;;11.48;2.22;;;9.20;99.90;;;;;;5068320;28;20034;-65
2023/03/13 03:22:25;;;;;;;5.95;1.52;;;9.20;99.90;;;;;;5066453;28;20108;-65
2023/03/13 03:24:50;;;;;;;15.82;2.05;;;9.20;99.90;;;;;;5062777;28;20414;-65
2023/03/13 03:27:16;;;;;;;9.27;1.95;;;9.20;99.90;;;;;;5064783;28;20028;-64
2023/03/13 03:29:42;;;;;;;9.57;1.45;;;9.20;99.90;;;;;;5048416;28;20052;-65
2023/03/13 03:32:07;;;;;;;2.78;1.15;;;9.20;99.90;;;;;;5058716;28;20047;-65
2023/03/13 03:34:33;;;;;;;8.90;1.13;;;9.20;99.90;;;;;;5067112;28;20093;-65
2023/03/13 03:36:58;;;;;;;9.57;2.30;;;9.30;99.90;;;;;;5063139;28;20028;-65
2023/03/13 03:39:24;;;;;;;5.90;1.15;;;9.30;99.90;;;;;;5063266;28;20033;-65
2023/03/13 03:41:49;;;;;;;7.25;1.15;;;9.30;99.90;;;;;;5063973;28;20043;-66
2023/03/13 03:44:15;;;;;;;3.97;1.02;;;9.30;99.90;;;;;;5061838;28;20524;-66
2023/03/13 03:46:41;;;;;;;2.50;0.95;;;9.30;99.90;;;;;;5056874;28;20052;-65
2023/03/13 03:49:06;;;;;;;7.03;1.25;;;9.30;99.90;;;;;;5067117;28;20115;-66
2023/03/13 03:51:32;;;;;;;7.32;0.93;;;9.30;99.90;;;;;;5064346;28;20029;-64
2023/03/13 03:53:57;;;;;;;5.53;0.98;;;9.40;99.90;;;;;;5082599;28;20029;-67
2023/03/13 03:56:23;;;;;;;1.02;0.65;;;9.40;99.90;;;;;;5071429;28;20781;-64
2023/03/13 03:58:48;;;;;;;5.10;0.70;;;9.40;99.90;;;;;;5071096;28;20121;-65
2023/03/13 04:01:14;;;;;;;5.80;1.10;;;9.40;99.90;;;;;;5068013;28;20025;-65
2023/03/13 04:03:40;;;;;;;2.08;0.60;;;9.50;99.90;;;;;;5065830;28;20016;-66
2023/03/13 04:06:06;;;;;;;5.57;0.73;;;9.50;99.90;;;;;;5068408;28;20604;-64
2023/03/13 04:08:32;;;;;;;1.23;0.60;;;9.50;99.90;;;;;;5071001;28;20104;-65
2023/03/13 04:11:00;;;;;;;1.73;0.68;;;9.50;99.90;;;;;;5070448;28;20107;-65
2023/03/13 04:13:26;;;;;;;1.50;0.57;;;9.60;99.90;;;;;;5067965;28;20016;-65
2023/03/13 04:15:51;;;;;;;4.70;0.60;;;9.60;99.90;;;;;;5069832;28;20115;-65
2023/03/13 04:18:17;;;;;;;4.60;0.80;;;9.60;99.90;;;;;;5065950;28;20016;-65
2023/03/13 04:20:43;;;;;;;1.15;0.55;;;9.70;99.90;;;;;;5067900;28;20020;-65
2023/03/13 04:23:09;;;;;;;3.80;0.80;;;9.70;99.90;;;;;;5066380;28;20078;-65
2023/03/13 04:25:35;;;;;;;3.75;0.47;;;9.70;99.90;;;;;;5067917;28;20024;-65
2023/03/13 04:28:01;;;;;;;3.38;0.95;;;9.70;99.90;;;;;;5067658;28;20107;-65
2023/03/13 04:30:26;;;;;;;3.00;0.70;;;9.70;99.90;;;;;;5051761;28;20060;-65
2023/03/13 04:32:52;;;;;;;2.03;0.45;;;9.70;99.90;;;;;;5067156;28;20020;-65
2023/03/13 04:35:18;;;;;;;1.75;0.60;;;9.70;99.90;;;;;;5066033;28;20052;-66
2023/03/13 04:37:43;;;;;;;2.20;0.80;;;9.70;99.90;;;;;;5063332;28;20037;-66
2023/03/13 04:40:11;;;;;;;1.98;0.60;;;9.70;99.90;;;;;;5068112;28;20017;-65
2023/03/13 04:42:37;;;;;;;1.08;0.77;;;9.70;99.90;;;;;;5066069;28;20074;-65
2023/03/13 04:45:02;;;;;;;2.13;0.95;;;9.70;99.90;;;;;;5065306;28;20025;-65
2023/03/13 04:47:28;;;;;;;3.33;0.60;;;9.70;99.90;;;;;;5068609;28;20016;-65
2023/03/13 04:49:54;;;;;;;1.00;0.60;;;9.80;99.90;;;;;;5067413;28;20044;-66
2023/03/13 04:52:19;;;;;;;3.72;0.28;;;9.80;99.90;;;;;;5067135;28;20037;-65
2023/03/13 04:54:45;;;;;;;3.30;0.60;;;9.80;99.90;;;;;;5066123;28;20027;-66
2023/03/13 04:57:11;;;;;;;1.98;0.35;;;9.90;99.90;;;;;;5062801;28;20071;-66
2023/03/13 04:59:36;;;;;;;3.38;0.50;;;9.90;99.90;;;;;;5063414;28;20397;-65
2023/03/13 05:02:02;;;;;;;1.30;0.80;;;9.90;99.90;;;;;;5062389;28;21693;-63
2023/03/13 05:04:27;;;;;;;1.15;0.60;;;9.90;99.90;;;;;;5058989;28;20029;-66
2023/03/13 05:06:53;;;;;;;0.63;0.40;;;9.90;99.90;;;;;;5066980;28;20033;-66
2023/03/13 05:09:18;;;;;;;0.50;0.50;;;9.90;99.90;;;;;;5067928;28;20025;-65
2023/03/13 05:11:44;;;;;;;1.75;0.50;;;9.80;99.90;;;;;;5067927;28;20086;-65
2023/03/13 05:14:10;;;;;;;1.00;0.70;;;9.90;99.90;;;;;;5063431;28;21544;-64
2023/03/13 05:16:37;;;;;;;0.95;0.70;;;9.90;99.90;;;;;;5069607;28;20390;-66
2023/03/13 05:19:03;;;;;;;1.80;0.60;;;9.80;99.90;;;;;;5069062;28;20561;-66
2023/03/13 05:21:28;;;;;;;0.75;0.43;;;9.90;99.90;;;;;;5067952;28;20120;-65
2023/03/13 05:23:54;;;;;;;0.88;0.60;;;9.90;99.90;;;;;;5067046;28;20023;-66
2023/03/13 05:26:19;;;;;;;1.38;0.60;;;9.90;99.90;;;;;;5068153;28;20106;-65
2023/03/13 05:28:45;;;;;;;0.80;0.50;;;9.90;99.90;;;;;;5065890;28;20016;-65
2023/03/13 05:31:11;;;;;;;2.15;0.40;;;9.80;99.90;;;;;;5048166;28;20041;-65
2023/03/13 05:33:36;;;;;;;0.57;0.40;;;9.80;99.90;;;;;;5068241;28;20021;-65
2023/03/13 05:36:02;;;;;;;0.50;0.50;;;9.80;99.90;;;;;;5068217;28;20033;-65
2023/03/13 05:38:27;;;;;;;0.70;0.60;;;9.80;99.90;;;;;;5067534;28;20032;-65
2023/03/13 05:40:53;;;;;;;0.28;0.28;;;9.90;99.90;;;;;;5069771;28;20024;-65
2023/03/13 05:43:19;;;;;;;0.88;0.40;;;9.90;99.90;;;;;;5065523;28;20028;-66
2023/03/13 05:45:44;;;;;;;1.75;0.47;;;9.90;99.90;;;;;;5066332;28;20034;-64
2023/03/13 05:48:10;;;;;;;1.10;0.40;;;10.00;99.90;;;;;;5068338;28;20461;-66
2023/03/13 05:50:35;;;;;;;0.63;0.43;;;10.00;99.90;;;;;;5071112;28;20032;-65
2023/03/13 05:53:01;;;;;;;1.63;0.57;;;10.00;99.90;;;;;;5067843;28;20103;-64
2023/03/13 05:55:26;;;;;;;0.80;0.50;;;10.00;99.90;;;;;;5068685;28;20750;-64
2023/03/13 05:57:52;;;;;;;6.47;2.08;;;10.00;99.90;;;;;;5068757;28;20418;-65
2023/03/13 06:00:18;;;;;;;1.70;1.40;;;10.00;99.90;;;;;;5068768;28;20036;-65
2023/03/13 06:02:44;;;;;;;4.25;2.60;;;10.00;99.90;;;;;;5068371;28;20501;-65
2023/03/13 06:05:10;;;;;;;6.25;2.70;;;10.00;99.90;;;;;;5071436;28;20031;-65
2023/03/13 06:07:35;;;;;;;3.28;2.30;;;10.00;99.90;;;;;;5069035;28;20071;-65
2023/03/13 06:10:03;;;;;;;8.38;5.03;;;10.10;99.90;;;;;;5067973;28;20029;-65
2023/03/13 06:12:28;;;;;;;49.45;36.58;;;10.10;99.90;;;;;;5067282;28;20456;-66
2023/03/13 06:14:54;;;;;;;39.85;31.00;;;10.10;99.90;;;;;;5068266;28;20115;-65
2023/03/13 06:17:19;;;;;;;21.48;16.52;;;10.00;99.90;;;;;;5070559;28;20077;-65
2023/03/13 06:19:46;;;;;;;21.42;12.98;;;10.10;99.90;;;;;;5067726;28;20028;-64
2023/03/13 06:22:11;;;;;;;9.82;5.63;;;10.10;99.90;;;;;;5069855;28;20048;-65
2023/03/13 06:24:37;;;;;;;3.60;2.63;;;10.10;99.90;;;;;;5068566;28;20063;-66
2023/03/13 06:27:03;;;;;;;3.13;1.48;;;10.10;99.90;;;;;;5070283;28;20562;-65
2023/03/13 06:29:28;;;;;;;3.20;2.33;;;10.20;99.90;;;;;;5066057;28;20025;-65
2023/03/13 06:31:54;;;;;;;3.67;2.55;;;10.30;99.90;;;;;;5053095;28;20520;-65
2023/03/13 06:34:19;;;;;;;3.20;1.20;;;10.40;99.90;;;;;;5066967;28;20060;-65
2023/03/13 06:36:45;;;;;;;1.35;1.02;;;10.40;99.90;;;;;;5070592;28;20077;-66
2023/03/13 06:39:11;;;;;;;3.28;0.80;;;10.50;99.90;;;;;;5067094;28;20032;-65
2023/03/13 06:41:37;;;;;;;1.45;0.68;;;10.50;99.90;;;;;;5072314;28;20031;-66
2023/03/13 06:44:04;;;;;;;2.30;1.05;;;10.60;99.90;;;;;;5068961;28;20530;-65
2023/03/13 06:46:30;;;;;;;1.80;1.58;;;10.60;99.90;;;;;;5069312;28;20032;-65
2023/03/13 06:48:57;;;;;;;4.88;2.85;;;10.60;99.90;;;;;;5070230;28;20021;-65
2023/03/13 06:51:22;;;;;;;8.57;3.72;;;10.70;99.90;;;;;;5068436;28;20107;-66
2023/03/13 06:53:48;;;;;;;2.65;1.58;;;10.70;99.90;;;;;;5065750;28;20158;-66
2023/03/13 06:56:14;;;;;;;4.32;2.50;;;10.80;99.90;;;;;;5068803;28;20546;-65
2023/03/13 06:58:39;;;;;;;12.32;7.60;;;10.90;99.90;;;;;;5058901;28;20464;-65
2023/03/13 07:01:11;;;;;;;9.35;3.25;;;11.00;99.90;;;;;;5069092;28;20021;-65
2023/03/13 07:03:37;;;;;;;11.10;5.38;;;11.20;99.90;;;;;;5067711;28;20032;-65
2023/03/13 07:06:04;;;;;;;8.95;4.43;;;11.30;99.90;;;;;;5052688;28;20036;-65
2023/03/13 07:08:31;;;;;;;6.25;3.00;;;11.40;99.90;;;;;;5078033;28;20547;-65
2023/03/13 07:11:06;;;;;;;5.57;2.95;;;11.50;99.90;;;;;;5066900;28;20433;-65
2023/03/13 07:13:32;;;;;;;3.75;1.55;;;11.50;99.90;;;;;;5069544;28;20055;-65
2023/03/13 07:16:07;;;;;;;4.82;1.45;;;11.60;99.90;;;;;;5068935;28;20024;-66
2023/03/13 07:18:34;;;;;;;7.20;3.55;;;11.60;99.90;;;;;;5070838;28;20022;-65
2023/03/13 07:21:01;;;;;;;9.98;4.10;;;11.60;99.90;;;;;;5067386;28;20017;-66
2023/03/13 07:23:28;;;;;;;6.22;3.28;;;11.70;99.90;;;;;;5068110;28;20089;-65
2023/03/13 07:25:55;;;;;;;10.05;3.70;;;11.70;99.90;;;;;;5068157;28;20027;-66
2023/03/13 07:28:21;;;;;;;8.90;3.85;;;11.80;99.90;;;;;;5067200;28;20495;-66
2023/03/13 07:30:48;;;;;;;10.80;4.50;;;11.70;99.90;;;;;;5052075;28;21151;-64
2023/03/13 07:33:14;;;;;;;14.93;5.13;;;11.80;99.90;;;;;;5069699;28;20119;-65
2023/03/13 07:35:39;;;;;;;16.23;4.32;;;11.80;99.90;;;;;;5070145;28;20096;-66
2023/03/13 07:38:05;;;;;;;9.38;3.60;;;11.80;99.90;;;;;;5067271;28;20024;-64
2023/03/13 07:40:30;;;;;;;8.45;3.60;;;11.80;99.90;;;;;;5069903;28;20071;-65
2023/03/13 07:42:56;;;;;;;15.80;6.60;;;11.90;99.90;;;;;;5067138;28;20025;-67
2023/03/13 07:45:21;;;;;;;12.20;4.63;;;11.90;99.90;;;;;;5065842;28;20649;-64
2023/03/13 07:47:47;;;;;;;15.23;6.43;;;11.90;99.90;;;;;;5069124;28;20077;-66
2023/03/13 07:50:13;;;;;;;4.35;2.13;;;12.00;99.90;;;;;;5070315;28;20027;-66
2023/03/13 07:52:38;;;;;;;7.97;3.83;;;12.00;99.90;;;;;;5068048;28;20025;-65
2023/03/13 07:55:04;;;;;;;16.95;7.15;;;12.00;99.90;;;;;;5067287;28;20095;-65
2023/03/13 07:57:30;;;;;;;5.63;3.70;;;12.10;99.90;;;;;;5069589;28;20031;-66
2023/03/13 07:59:55;;;;;;;8.25;4.05;;;12.20;99.90;;;;;;5066660;28;20016;-65
2023/03/13 08:02:21;;;;;;;8.45;3.88;;;12.40;99.90;;;;;;5069924;28;20035;-66
2023/03/13 08:04:50;;;;;;;7.35;3.88;;;12.50;99.90;;;;;;5068189;28;20430;-65
2023/03/13 08:07:15;;;;;;;4.93;3.63;;;12.70;99.90;;;;;;5063878;28;20508;-66
2023/03/13 08:09:41;;;;;;;5.93;3.67;;;12.80;99.90;;;;;;5066792;28;20024;-65
2023/03/13 08:12:07;;;;;;;7.05;3.35;;;13.00;99.90;;;;;;5068971;28;20451;-65
2023/03/13 08:14:32;;;;;;;5.90;3.65;;;13.10;99.90;;;;;;5064753;28;20551;-65
2023/03/13 08:16:58;;;;;;;2.20;2.00;;;13.10;99.90;;;;;;5068329;28;20036;-66
2023/03/13 08:19:23;;;;;;;3.58;2.67;;;13.10;99.90;;;;;;5067287;28;20768;-66
2023/03/13 08:21:49;;;;;;;4.20;3.00;;;13.10;99.90;;;;;;5068054;28;20382;-65
2023/03/13 08:24:15;;;;;;;7.00;3.78;;;12.90;99.90;;;;;;5068131;28;20048;-66
2023/03/13 08:26:41;;;;;;;12.07;4.20;;;12.90;99.90;;;;;;5066802;28;20043;-66
2023/03/13 08:29:09;;;;;;;16.25;7.28;;;12.80;99.90;;;;;;5066939;28;20029;-66
2023/03/13 08:31:38;;;;;;;13.88;5.75;;;12.70;99.90;;;;;;5052489;28;20044;-66
2023/03/13 08:34:03;;;;;;;13.25;5.20;;;12.70;99.90;;;;;;5066781;28;20021;-66
2023/03/13 08:36:34;;;;;;;14.02;5.72;;;12.50;99.90;;;;;;5069257;28;20482;-66
2023/03/13 08:39:03;;;;;;;10.07;4.85;;;12.60;99.90;;;;;;5068682;28;20535;-66
2023/03/13 08:41:33;;;;;;;16.25;5.13;;;12.60;99.90;;;;;;5066304;28;20098;-67
2023/03/13 08:43:59;;;;;;;11.02;5.10;;;12.70;99.90;;;;;;5066087;28;20023;-66
2023/03/13 08:46:27;;;;;;;9.18;4.10;;;12.70;99.90;;;;;;5067608;28;20068;-66
2023/03/13 08:48:54;;;;;;;5.75;3.20;;;12.70;99.90;;;;;;5063690;28;20051;-66
2023/03/13 08:51:22;;;;;;;6.95;2.58;;;12.70;99.90;;;;;;5064332;28;20032;-66
2023/03/13 08:53:48;;;;;;;4.30;2.03;;;12.70;99.90;;;;;;5065540;28;20033;-66
2023/03/13 08:56:16;;;;;;;3.17;1.83;;;12.70;99.90;;;;;;5065500;28;20167;-66
2023/03/13 08:58:42;;;;;;;14.05;6.15;;;12.60;99.90;;;;;;5064614;28;22266;-66
2023/03/13 09:01:10;;;;;;;21.25;8.15;;;12.50;99.90;;;;;;5062789;28;20078;-66
2023/03/13 09:03:36;;;;;;;15.27;5.18;;;12.50;99.90;;;;;;5063745;28;20021;-67
2023/03/13 09:06:02;;;;;;;11.40;4.22;;;12.50;99.90;;;;;;5068942;28;20028;-67
2023/03/13 09:08:29;;;;;;;13.82;5.05;;;12.50;99.90;;;;;;5069723;28;20056;-66
2023/03/13 09:11:00;;;;;;;17.48;8.20;;;12.50;99.90;;;;;;5067634;28;20028;-66
2023/03/13 09:13:27;;;;;;;9.43;3.95;;;12.50;99.90;;;;;;5065013;28;20028;-65
2023/03/13 09:15:57;;;;;;;14.57;4.65;;;12.50;99.90;;;;;;5068123;28;20039;-66
2023/03/13 09:18:23;;;;;;;12.32;6.07;;;12.50;99.90;;;;;;5067550;28;20086;-66
2023/03/13 09:20:49;;;;;;;13.65;5.32;;;12.60;99.90;;;;;;5069466;28;20424;-65
2023/03/13 09:23:15;;;;;;;13.80;4.80;;;12.50;99.90;;;;;;5070573;28;20500;-67
2023/03/13 09:25:40;;;;;;;9.02;4.15;;;12.50;99.90;;;;;;5066366;28;20024;-66
2023/03/13 09:28:06;;;;;;;9.77;4.05;;;12.60;99.90;;;;;;5069774;28;20060;-66
2023/03/13 09:30:31;;;;;;;13.02;4.97;;;12.60;99.90;;;;;;5069493;28;20379;-67
2023/03/13 09:32:57;;;;;;;14.00;4.35;;;12.60;99.90;;;;;;5068017;28;20044;-67
2023/03/13 09:35:23;;;;;;;7.78;3.15;;;12.60;99.90;;;;;;5070428;28;20544;-67
2023/03/13 09:37:48;;;;;;;8.75;3.45;;;12.60;99.90;;;;;;5071392;28;20033;-66
2023/03/13 09:40:17;;;;;;;11.30;4.28;;;12.60;99.90;;;;;;5069742;28;20020;-66
2023/03/13 09:42:56;;;;;;;10.18;3.03;;;12.60;99.90;;;;;;5069941;28;20071;-66
2023/03/13 09:45:35;;;;;;;6.25;2.95;;;12.60;99.90;;;;;;5083544;28;20099;-65
2023/03/13 09:48:25;;;;;;;9.73;3.83;;;12.70;99.90;;;;;;5069932;28;20079;-66
2023/03/13 09:51:09;;;;;;;11.90;4.10;;;12.70;99.90;;;;;;5068583;28;20102;-66
2023/03/13 09:53:53;;;;;;;7.85;3.22;;;12.70;99.90;;;;;;5068055;28;20032;-65
2023/03/13 09:56:21;;;;;;;;;;;12.70;99.90;;;;;;5070953;28;20489;-65
2023/03/13 09:58:58;;;;;;;5.25;2.95;;;12.80;99.90;;;;;;5068802;28;20435;-66
2023/03/13 10:01:28;;;;;;;5.18;2.47;;;12.70;99.90;;;;;;5068874;28;20154;-65
2023/03/13 10:03:57;;;;;;;12.15;1.88;;;12.70;99.90;;;;;;5063479;28;20025;-65
2023/03/13 10:06:38;;;;;;;4.00;1.63;;;12.70;99.90;;;;;;5070246;28;20513;-66
2023/03/13 10:09:19;;;;;;;3.60;1.67;;;12.70;99.90;;;;;;5072377;28;20031;-66
2023/03/13 10:11:57;;;;;;;2.72;1.80;;;12.80;99.90;;;;;;5067882;28;20012;-66
2023/03/13 10:14:29;;;;;;;4.00;1.67;;;12.80;99.90;;;;;;5066372;28;20032;-65
2023/03/13 10:17:05;;;;;;;1.95;1.40;;;12.80;99.90;;;;;;5065264;28;20413;-66
2023/03/13 10:19:36;;;;;;;3.47;1.58;;;13.00;99.90;;;;;;5067608;28;20530;-65
2023/03/13 10:22:08;;;;;;;2.10;1.73;;;13.10;99.90;;;;;;5065959;28;20036;-66
2023/03/13 10:24:57;;;;;;;22.05;10.55;;;13.10;99.90;;;;;;5069171;28;20020;-66
2023/03/13 10:27:22;;;;;;;9.75;4.25;;;13.30;99.90;;;;;;5065682;28;20497;-66
2023/03/13 10:29:48;;;;;;;66.97;33.03;;;13.30;99.90;;;;;;5066518;28;20067;-66
2023/03/13 10:32:16;;;;;;;41.85;17.77;;;13.30;99.90;;;;;;5054451;28;20055;-66
2023/03/13 10:34:50;;;;;;;15.68;6.07;;;13.30;99.90;;;;;;5061475;28;20529;-66
2023/03/13 10:37:21;;;;;;;7.45;3.45;;;13.30;99.90;;;;;;5070114;28;20166;-65
2023/03/13 10:39:46;;;;;;;28.27;12.27;;;13.40;99.90;;;;;;5067416;28;20024;-67
2023/03/13 10:42:27;;;;;;;45.67;16.65;;;13.40;99.90;;;;;;5070490;28;20386;-66
2023/03/13 10:45:00;;;;;;;29.38;13.02;;;13.40;99.90;;;;;;5067876;28;20035;-66
2023/03/13 10:47:31;;;;;;;30.95;12.38;;;13.50;99.90;;;;;;5069352;28;20094;-66
2023/03/13 10:49:57;;;;;;;14.20;7.18;;;13.60;99.90;;;;;;5059486;28;20516;-66
2023/03/13 10:52:44;;;;;;;6.80;4.20;;;13.60;99.90;;;;;;5069268;28;20063;-66
2023/03/13 10:55:22;;;;;;;4.15;2.10;;;13.80;99.90;;;;;;5068583;28;20021;-67
2023/03/13 10:57:56;;;;;;;2.90;1.77;;;13.80;99.90;;;;;;5067280;28;20431;-66
2023/03/13 11:00:35;;;;;;;3.90;1.77;;;13.90;99.90;;;;;;5071528;28;20496;-66
2023/03/13 11:03:06;;;;;;;6.20;3.05;;;13.90;99.90;;;;;;5062986;28;20102;-65
2023/03/13 11:05:37;;;;;;;3.30;1.85;;;14.00;99.90;;;;;;5069216;28;20028;-66
2023/03/13 11:08:26;;;;;;;6.43;3.15;;;14.00;99.90;;;;;;5067289;28;20028;-66
2023/03/13 11:10:59;;;;;;;1.55;1.25;;;14.00;99.90;;;;;;5069568;28;20099;-66
2023/03/13 11:13:27;;;;;;;6.70;2.60;;;14.00;99.90;;;;;;5066784;28;20394;-66
2023/03/13 11:15:58;;;;;;;6.50;3.08;;;14.00;99.90;;;;;;5069343;28;20028;-66
2023/03/13 11:18:28;;;;;;;2.72;1.85;;;13.90;99.90;;;;;;5069650;28;20089;-66
2023/03/13 11:20:55;;;;;;;7.43;1.80;;;13.90;99.90;;;;;;5069451;28;20056;-65
2023/03/13 11:23:32;;;;;;;4.85;1.83;;;14.00;99.90;;;;;;5072090;28;20499;-66
2023/03/13 11:26:05;;;;;;;4.32;2.00;;;14.10;99.90;;;;;;5070137;28;20413;-66
2023/03/13 11:28:57;;;;;;;6.70;2.38;;;14.30;99.90;;;;;;5068002;28;20035;-67
2023/03/13 11:31:33;;;;;;;6.45;3.05;;;14.40;99.90;;;;;;5069309;28;20048;-66
2023/03/13 11:34:18;;;;;;;4.65;2.30;;;14.50;99.90;;;;;;5051088;28;20135;-66
2023/03/13 11:36:52;;;;;;;5.05;2.42;;;14.60;99.90;;;;;;5069914;28;20032;-66
2023/03/13 11:39:26;;;;;;;8.68;2.85;;;14.50;99.90;;;;;;5069632;28;20035;-66
2023/03/13 11:42:07;;;;;;;4.40;1.92;;;14.60;99.90;;;;;;5069003;28;20032;-66
2023/03/13 11:45:10;;;;;;;4.32;2.15;;;14.70;99.90;;;;;;5067335;28;20103;-66
2023/03/13 11:47:58;;;;;;;6.30;3.93;;;14.70;99.90;;;;;;5057173;28;20064;-66
2023/03/13 11:50:45;;;;;;;7.72;2.40;;;14.50;99.90;;;;;;5067392;28;20017;-65
2023/03/13 11:53:40;;;;;;;2.50;1.38;;;14.50;99.90;;;;;;5066493;28;20436;-66
2023/03/13 11:56:17;;;;;;;1.50;0.95;;;14.50;99.90;;;;;;5067115;28;20067;-66
2023/03/13 11:59:07;;;;;;;1.40;1.13;;;14.40;99.90;;;;;;5066784;28;20032;-66
2023/03/13 12:01:50;;;;;;;7.35;4.55;;;14.40;99.90;;;;;;5067275;28;20493;-66
2023/03/13 12:04:27;;;;;;;4.35;2.10;;;14.60;99.90;;;;;;5062189;28;20397;-66
2023/03/13 12:07:00;;;;;;;3.35;2.17;;;14.90;99.90;;;;;;5068058;28;20036;-66
2023/03/13 12:09:44;;;;;;;2.33;1.67;;;15.10;99.90;;;;;;5067463;28;20029;-66
2023/03/13 12:12:30;;;;;;;5.15;3.40;;;15.40;99.90;;;;;;5066705;28;20024;-66
2023/03/13 12:15:27;;;;;;;4.25;2.75;;;15.50;99.90;;;;;;5066243;28;20025;-67
2023/03/13 12:18:14;;;;;;;2.92;1.10;;;15.30;99.90;;;;;;5064096;28;20122;-66
2023/03/13 12:21:16;;;;;;;1.60;1.42;;;15.30;99.90;;;;;;5065933;28;20105;-64
2023/03/13 12:24:09;;;;;;;1.45;1.35;;;15.10;99.90;;;;;;5068123;28;20020;-66
2023/03/13 12:26:45;;;;;;;3.03;2.13;;;15.10;99.90;;;;;;5063360;28;20578;-66
2023/03/13 12:29:16;;;;;;;0.95;0.90;;;15.20;99.90;;;;;;5060295;28;20100;-67
2023/03/13 12:32:04;;;;;;;1.83;0.82;;;15.30;99.90;;;;;;5067194;28;20402;-66
2023/03/13 12:34:50;;;;;;;1.67;1.30;;;15.50;99.90;;;;;;5061740;28;20048;-67
2023/03/13 12:37:28;;;;;;;1.83;1.50;;;15.70;99.90;;;;;;5063049;28;20025;-67
2023/03/13 12:39:59;;;;;;;4.68;0.80;;;15.70;99.90;;;;;;5068542;28;20039;-67
2023/03/13 12:42:39;;;;;;;0.93;0.73;;;15.80;99.90;;;;;;5065393;28;20024;-67
2023/03/13 12:45:09;;;;;;;1.00;0.77;;;15.70;99.90;;;;;;5063656;28;20020;-64
2023/03/13 12:48:03;;;;;;;1.45;0.80;;;15.60;99.90;;;;;;5064297;28;20556;-65
2023/03/13 12:50:58;;;;;;;1.67;1.00;;;15.50;99.90;;;;;;5064706;28;20039;-67
2023/03/13 12:53:48;;;;;;;1.33;1.13;;;15.50;99.90;;;;;;5059931;28;20137;-68
2023/03/13 12:56:26;;;;;;;3.30;1.25;;;15.50;99.90;;;;;;5065786;28;20039;-65
2023/03/13 12:59:01;;;;;;;3.50;0.70;;;15.50;99.90;;;;;;5069401;28;20381;-64
2023/03/13 13:01:35;;;;;;;1.73;0.93;;;15.60;99.90;;;;;;5066891;28;20040;-65